Monday, June 25, 2018, 12:15 AM EDT
Back to Local

KWVL, Waterville, Waterville Robert Lafleur Airport

Location: Waterville, ME, United States Lat: 44.533
Local Time: 12:15 AM EDT ( 4:15 GMT) Lon: -69.683
Time Zone: US/Eastern Elev: 334 ft

Show me the last for .
Show Coded

Time T Td Feel RH Dir Speed Gust Alt SLP Vis Weather Sky Remarks
2018-06-24 22:56 64 61 - 89 - Calm - 29.79 29.87 10 BKN085 None
2018-06-24 21:56 64 61 - 89 - Calm - 29.80 29.88 10 BKN090 None
2018-06-24 20:56 65 61 - 87 - Calm - 29.79 29.86 10 CLR None
2018-06-24 19:56 66 61 - 83 - Calm - 29.79 29.87 10 FEW080 6-hr Min Temp (8pm): 66.0°F
6-hr Max Temp (8pm): 72.0°F
2018-06-24 18:56 68 60 - 75 - Calm - 29.79 29.86 10 SCT080 None
2018-06-24 17:56 69 60 - 73 Variable 3 - 29.78 29.85 10 SCT050 BKN080 None
2018-06-24 16:56 70 59 - 68 Variable 5 - 29.78 29.85 10 OVC046 None
2018-06-24 15:56 71 57 76 61 Variable 3 - 29.77 29.84 10 OVC046 None
2018-06-24 14:56 71 57 76 61 280° 7 - 29.77 29.84 10 OVC040 None
2018-06-24 13:56 71 56 76 58 10° 6 - 29.76 29.83 10 BKN040 6-hr Min Temp (2pm): 55.9°F
6-hr Max Temp (2pm): 73.0°F
2018-06-24 12:56 70 55 - 59 - Calm - 29.77 29.85 10 BKN036 None
2018-06-24 12:29 70 57 - 64 - Calm - 29.77 - 10 FEW027 SCT034 OVC042 None
2018-06-24 11:56 67 56 - 67 - Calm - 29.78 29.86 10 BKN023 None
2018-06-24 10:56 64 58 - 80 270° 5 - 29.78 29.86 10 OVC044 None
2018-06-24 10:33 64 57 - 77 Variable 6 - 29.78 - 10 SCT016 SCT021 OVC044 None
2018-06-24 10:10 63 57 - 82 250° 7 - 29.78 - 10 BKN012 BKN019 OVC042 None
2018-06-24 09:56 63 58 - 83 Variable 3 - 29.76 29.83 10 BKN009 BKN042 None
2018-06-24 09:05 61 55 - 82 - Calm - 29.76 - 10 BKN007 OVC042 None
2018-06-24 08:56 58 55 - 90 - Calm - 29.76 29.84 10 BKN005 OVC042 None
2018-06-24 08:08 55 55 - 100 220° 6 - 29.77 - 10 OVC005 None
2018-06-24 07:56 56 55 - 96 - Calm - 29.76 29.84 10 OVC003 24-hr Precip Total (8am): 0.75"
6-hr Min Temp (8am): 52.0°F
6-hr Max Temp (8am): 55.9°F
2018-06-24 06:56 54 54 - 100 - Calm - 29.76 29.84 10 OVC003 None
2018-06-24 05:56 53 53 - 100 - Calm - 29.75 29.83 9 OVC003 None
2018-06-24 05:34 54 54 - 100 - Calm - 29.75 - 9 BKN003 BKN049 None
2018-06-24 05:22 54 52 - 93 - Calm - 29.75 - 8 SCT003 BKN049 None
2018-06-24 04:56 53 52 - 96 - Calm - 29.75 29.83 10 BKN003 None
2018-06-24 04:39 54 52 - 93 - Calm - 29.75 - 9 BKN001 BKN039 None
2018-06-24 04:24 54 52 - 93 - Calm - 29.75 - 7 SCT003 SCT021 BKN031 None
2018-06-24 03:56 53 52 - 96 - Calm - 29.76 29.83 8 OVC003 None
2018-06-24 03:44 52 52 - 100 - Calm - 29.76 - 4 BR OVC003 None
2018-06-24 03:34 54 52 - 93 - Calm - 29.76 - 2 BR OVC003 Variable visibility
2018-06-24 03:15 52 52 - 100 - Calm - 29.76 - 1 BR OVC001 None
2018-06-24 02:56 52 52 - 100 - Calm - 29.77 29.85 0 BR OVC001 None
2018-06-24 02:44 54 52 - 93 - Calm - 29.77 - 0 BR OVC001 None
2018-06-24 02:33 52 52 - 100 - Calm - 29.77 - 1 BR BKN001 OVC031 Variable visibility
2018-06-24 02:28 52 52 - 100 - Calm - 29.77 - 4 BR BKN001 OVC029 None
2018-06-24 02:03 52 52 - 100 - Calm - 29.78 - 3 BR SCT005 BKN027 None
2018-06-24 01:59 52 52 - 100 - Calm - 29.78 - 2 BR SCT005 Variable visibility
2018-06-24 01:56 52 52 - 100 - Calm - 29.78 29.86 3 BR BKN005 6-hr Precip Total (2am): 0.63"
6-hr Min Temp (2am): 51.1°F
6-hr Max Temp (2am): 54.0°F
2018-06-24 01:32 52 52 - 100 - Calm - 29.79 - 7 BKN005 OVC014 None
2018-06-24 01:20 52 52 - 100 - Calm - 29.80 - 6 BR FEW005 BKN014 BKN030 None
2018-06-24 01:13 52 52 - 100 - Calm - 29.80 - 8 FEW007 BKN016 OVC030 None
2018-06-24 01:07 52 52 - 100 - Calm - 29.80 - 7 FEW016 SCT021 BKN030 None
2018-06-24 00:56 52 52 - 100 - Calm - 29.81 29.88 4 BR FEW006 SCT021 BKN028 1-hr Precip Total: 0.01"
24-hr Min Temp (1am): 51.1°F
24-hr Max Temp (1am): 68.0°F

Support USWX by starting your Amazon purchase here.